Fairville, Pennsylvania
Current Conditions -  °F | °C
As of 7:53 PM on Monday 22 Dec 2014 (Local Time) from KSEG Reporting Station
Freezing Rain Freezing Rain  
Wind Chill: 33°   Ceiling: 3400
Heat Index: 33°   Visibility: 2.5mi
Dew Point: 30°   Wind: 0mph
Humidity: 89%   Direction: NA
Pressure: 30.2"   Gusts: NA
Location:  40.9885°N, 76.9787°W
Report Text: KSEG 230053Z AUTO 00000KT 2 1/2SM -FZRA BR FEW026 OVC034 01/M01 A3020 RMK AO2 RAE34FZRAB34 SLP233 P0002 I1001 T00061011
Loading
Personal Weather Stations






























Interactive Weather Map New forecast layout! Learn more

10-Day Weather Forecast

Advertisements
Track Severe Weather on mobile